createdAt,value
2018-03-04T00:00:39.059Z,92.80
2018-03-04T00:01:39.025Z,90.30
2018-03-04T00:03:38.090Z,94.50
2018-03-04T00:04:34.393Z,90.10
2018-03-04T00:06:30.854Z,87.80
2018-03-04T00:07:30.340Z,89.40
2018-03-04T00:09:26.788Z,93.90
2018-03-04T00:10:26.275Z,91.50
2018-03-04T00:12:22.714Z,86.70
2018-03-04T00:13:22.189Z,93.60
2018-03-04T00:15:18.127Z,93.10
2018-03-04T00:16:18.613Z,87.80
2018-03-04T00:18:14.548Z,94.60
2018-03-04T00:19:14.023Z,97.10
2018-03-04T00:21:09.952Z,89.10
2018-03-04T00:22:09.916Z,91.20
2018-03-04T00:24:05.836Z,92.80
2018-03-04T00:25:05.825Z,92.10
2018-03-04T00:27:01.776Z,91.70
2018-03-04T00:28:01.762Z,93.90
2018-03-04T00:29:57.708Z,94.60
2018-03-04T00:30:57.667Z,90.10
2018-03-04T00:32:55.109Z,95.00
2018-03-04T00:33:54.114Z,92.00
2018-03-04T00:35:50.025Z,91.90
2018-03-04T00:36:49.492Z,92.40
2018-03-04T00:38:45.937Z,90.00
2018-03-04T00:39:45.397Z,91.80
2018-03-04T00:41:41.334Z,89.50
2018-03-04T00:42:41.859Z,90.10
2018-03-04T00:44:37.207Z,97.50
2018-03-04T00:45:37.224Z,91.10
2018-03-04T00:47:33.146Z,95.20
2018-03-04T00:48:33.137Z,98.30
2018-03-04T00:50:29.592Z,95.90
2018-03-04T00:51:29.062Z,94.40
2018-03-04T00:53:25.011Z,95.90
2018-03-04T00:54:26.427Z,90.90
2018-03-04T00:56:20.962Z,95.50
2018-03-04T00:57:20.886Z,92.90
2018-03-04T00:59:16.822Z,92.20
2018-03-04T01:00:16.805Z,93.70
2018-03-04T01:02:12.747Z,96.80
2018-03-04T01:03:12.745Z,89.60
2018-03-04T01:05:10.124Z,98.50
2018-03-04T01:06:08.656Z,98.40
2018-03-04T01:08:04.616Z,95.60
2018-03-04T01:09:04.533Z,97.80
2018-03-04T01:11:00.535Z,99.20
2018-03-04T01:12:01.487Z,96.30
2018-03-04T01:13:56.976Z,97.00
2018-03-04T01:14:56.963Z,96.80
2018-03-04T01:16:52.349Z,97.70
2018-03-04T01:17:52.340Z,95.50
2018-03-04T01:19:48.296Z,94.90
2018-03-04T01:20:48.273Z,95.00
2018-03-04T01:22:44.211Z,94.60
2018-03-04T01:23:44.189Z,97.20
2018-03-04T01:25:40.638Z,97.70
2018-03-04T01:26:40.116Z,99.40
2018-03-04T01:28:36.018Z,96.10
2018-03-04T01:29:36.594Z,98.30
2018-03-04T01:31:31.961Z,95.40
2018-03-04T01:32:32.445Z,101.60
2018-03-04T01:34:28.378Z,93.70
2018-03-04T01:35:28.397Z,97.10
2018-03-04T01:37:24.287Z,97.50
2018-03-04T01:38:23.765Z,94.70
2018-03-04T01:40:19.678Z,99.10
2018-03-04T01:41:19.680Z,97.30
2018-03-04T01:43:15.622Z,98.30
2018-03-04T01:44:15.613Z,101.40
2018-03-04T01:46:12.058Z,92.80
2018-03-04T01:47:12.060Z,98.50
2018-03-04T01:49:07.562Z,95.30
2018-03-04T01:50:07.426Z,101.00
2018-03-04T01:52:03.393Z,99.70
2018-03-04T01:53:03.875Z,92.20
2018-03-04T01:55:00.271Z,94.80
2018-03-04T01:55:59.783Z,92.70
2018-03-04T01:57:55.217Z,102.10
2018-03-04T01:58:55.708Z,97.40
2018-03-04T02:00:52.141Z,95.00
2018-03-04T02:01:51.638Z,90.10
2018-03-04T02:03:49.014Z,96.00
2018-03-04T02:04:49.015Z,91.50
2018-03-04T02:06:44.982Z,94.20
2018-03-04T02:07:44.940Z,92.70
2018-03-04T02:09:40.899Z,96.20
2018-03-04T02:10:40.873Z,99.00
2018-03-04T02:12:36.800Z,92.00
2018-03-04T02:13:36.789Z,91.30
2018-03-04T02:15:33.227Z,95.10
2018-03-04T02:16:32.704Z,98.20
2018-03-04T02:18:28.613Z,96.10
2018-03-04T02:19:28.589Z,98.30
2018-03-04T02:21:24.517Z,99.00
2018-03-04T02:22:24.511Z,98.30
2018-03-04T02:24:20.467Z,96.80
2018-03-04T02:25:20.421Z,92.50
2018-03-04T02:27:16.355Z,99.10
2018-03-04T02:28:16.330Z,98.40
2018-03-04T02:30:12.273Z,102.60
2018-03-04T02:31:12.781Z,95.00
2018-03-04T02:33:08.174Z,93.70
2018-03-04T02:34:08.164Z,97.20
2018-03-04T02:36:04.084Z,92.50
2018-03-04T02:37:04.628Z,95.50
2018-03-04T02:39:00.049Z,96.40
2018-03-04T02:40:00.532Z,94.50
2018-03-04T02:41:55.889Z,96.10
2018-03-04T02:42:56.412Z,99.20
2018-03-04T02:44:52.336Z,98.40
2018-03-04T02:45:52.369Z,102.20
2018-03-04T02:47:47.789Z,93.60
2018-03-04T02:48:48.265Z,97.20
2018-03-04T02:50:43.680Z,91.50
2018-03-04T02:51:43.673Z,92.40
2018-03-04T02:53:51.304Z,95.10
2018-03-04T02:54:51.284Z,99.10
2018-03-04T02:56:47.727Z,102.40
2018-03-04T02:57:47.734Z,92.90
2018-03-04T02:59:43.144Z,92.70
2018-03-04T03:00:43.140Z,96.20
2018-03-04T03:02:39.081Z,96.40
2018-03-04T03:03:39.554Z,95.10
2018-03-04T03:05:35.467Z,93.90
2018-03-04T03:06:34.957Z,94.80
2018-03-04T03:08:30.874Z,89.10
2018-03-04T03:09:31.398Z,98.80
2018-03-04T03:11:27.290Z,94.40
2018-03-04T03:12:27.292Z,93.00
2018-03-04T03:14:22.711Z,100.90
2018-03-04T03:15:22.666Z,95.40
2018-03-04T03:17:18.577Z,99.60
2018-03-04T03:18:18.580Z,101.80
2018-03-04T03:20:15.533Z,93.10
2018-03-04T03:21:14.509Z,91.80
2018-03-04T03:23:10.450Z,91.70
2018-03-04T03:24:10.450Z,91.90
2018-03-04T03:26:06.362Z,91.00
2018-03-04T03:27:06.360Z,92.50
2018-03-04T03:29:02.814Z,98.00
2018-03-04T03:30:02.236Z,95.50
2018-03-04T03:31:58.183Z,94.50
2018-03-04T03:32:58.680Z,100.50
2018-03-04T03:34:54.110Z,93.50
2018-03-04T03:35:54.084Z,95.10
2018-03-04T03:37:49.998Z,100.10
2018-03-04T03:38:49.996Z,99.00
2018-03-04T03:40:46.459Z,93.10
2018-03-04T03:41:45.936Z,93.50
2018-03-04T03:43:42.872Z,99.60
2018-03-04T03:44:41.844Z,102.30
2018-03-04T03:46:37.775Z,94.00
2018-03-04T03:47:37.783Z,92.90
2018-03-04T03:49:34.207Z,97.70
2018-03-04T03:50:33.702Z,90.00
2018-03-04T03:52:29.614Z,93.80
2018-03-04T03:53:29.612Z,88.90
2018-03-04T03:55:25.570Z,95.00
2018-03-04T03:56:25.562Z,98.00
2018-03-04T03:58:21.446Z,90.20
2018-03-04T03:59:21.445Z,94.30
2018-03-04T04:01:17.365Z,92.30
2018-03-04T04:02:17.373Z,97.00
2018-03-04T04:04:14.315Z,94.70
2018-03-04T04:05:13.290Z,91.40
2018-03-04T04:07:09.263Z,95.50
2018-03-04T04:09:25.211Z,96.00
2018-03-04T04:10:25.174Z,90.10
2018-03-04T04:12:21.117Z,93.00
2018-03-04T04:13:21.086Z,90.90
2018-03-04T04:15:17.054Z,90.00
2018-03-04T04:16:17.526Z,96.70
2018-03-04T04:18:12.913Z,91.40
2018-03-04T04:19:12.905Z,95.80
2018-03-04T04:21:08.828Z,92.30
2018-03-04T04:22:08.855Z,91.90
2018-03-04T04:24:04.280Z,92.60
2018-03-04T04:25:03.786Z,91.70
2018-03-04T04:26:59.166Z,94.70
2018-03-04T04:27:59.168Z,91.50
2018-03-04T04:29:55.096Z,94.00
2018-03-04T04:30:55.086Z,95.30
2018-03-04T04:32:51.522Z,90.60
2018-03-04T04:33:50.998Z,85.50
2018-03-04T04:35:47.935Z,91.40
2018-03-04T04:36:47.453Z,91.80
2018-03-04T04:38:42.846Z,91.60
2018-03-04T04:39:42.873Z,89.50
2018-03-04T04:41:40.276Z,90.90
2018-03-04T04:42:38.751Z,91.10
2018-03-04T04:44:34.664Z,89.30
2018-03-04T04:45:34.667Z,88.50
2018-03-04T04:47:30.592Z,84.50
2018-03-04T04:48:30.573Z,88.90
2018-03-04T04:50:26.505Z,90.00
2018-03-04T04:51:26.488Z,94.20
2018-03-04T04:53:22.452Z,84.90
2018-03-04T04:54:22.407Z,93.60
2018-03-04T04:56:18.345Z,91.90
2018-03-04T04:57:18.323Z,88.20
2018-03-04T04:59:14.256Z,91.10
2018-03-04T05:00:14.244Z,92.70
2018-03-04T05:02:10.211Z,91.70
2018-03-04T05:03:10.182Z,91.50
2018-03-04T05:05:06.137Z,88.10
2018-03-04T05:06:06.122Z,92.10
2018-03-04T05:08:02.058Z,90.00
2018-03-04T05:09:02.064Z,91.70
2018-03-04T05:10:58.032Z,96.60
2018-03-04T05:11:58.936Z,97.40
2018-03-04T05:13:53.907Z,91.80
2018-03-04T05:14:53.915Z,96.20
2018-03-04T05:16:50.367Z,91.80
2018-03-04T05:17:49.825Z,95.30
2018-03-04T05:19:45.788Z,96.10
2018-03-04T05:20:45.738Z,89.70
2018-03-04T05:22:42.174Z,98.60
2018-03-04T05:23:41.686Z,92.00
2018-03-04T05:25:38.621Z,99.50
2018-03-04T05:26:39.113Z,98.20
2018-03-04T05:28:33.549Z,94.50
2018-03-04T05:29:33.465Z,94.30
2018-03-04T05:31:29.422Z,98.40
2018-03-04T05:32:29.369Z,105.50
2018-03-04T05:34:25.341Z,101.90
2018-03-04T05:35:25.292Z,102.00
2018-03-04T05:37:21.256Z,104.00
2018-03-04T05:38:21.202Z,100.50
2018-03-04T05:40:17.656Z,100.70
2018-03-04T05:41:17.141Z,97.30
2018-03-04T05:43:13.088Z,95.20
2018-03-04T05:44:13.042Z,103.30
2018-03-04T05:46:09.009Z,106.00
2018-03-04T05:47:08.978Z,99.10
2018-03-04T05:49:05.426Z,107.60
2018-03-04T05:50:05.416Z,103.70
2018-03-04T05:52:00.872Z,106.70
2018-03-04T05:53:00.813Z,104.70
2018-03-04T05:54:56.763Z,105.30
2018-03-04T05:55:56.727Z,107.10
2018-03-04T05:57:52.687Z,111.10
2018-03-04T05:58:52.640Z,109.30
2018-03-04T06:00:49.098Z,108.20
2018-03-04T06:01:48.548Z,107.00
2018-03-04T06:03:44.519Z,99.80
2018-03-04T06:04:44.475Z,107.90
2018-03-04T06:06:40.921Z,107.20
2018-03-04T06:07:40.393Z,109.40
2018-03-04T06:09:36.342Z,102.50
2018-03-04T06:10:36.311Z,102.30
2018-03-04T06:12:32.245Z,108.30
2018-03-04T06:13:32.752Z,106.60
2018-03-04T06:15:28.145Z,109.60
2018-03-04T06:16:28.147Z,106.50
2018-03-04T06:18:24.112Z,110.70
2018-03-04T06:19:24.086Z,112.50
2018-03-04T06:21:20.050Z,106.60
2018-03-04T06:22:19.999Z,108.90
2018-03-04T06:24:16.957Z,105.90
2018-03-04T06:25:16.474Z,102.00
2018-03-04T06:27:11.887Z,106.00
2018-03-04T06:28:11.852Z,106.40
2018-03-04T06:30:09.302Z,108.00
2018-03-04T06:31:07.766Z,103.90
2018-03-04T06:33:03.678Z,106.60
2018-03-04T06:34:03.680Z,111.10
2018-03-04T06:35:59.616Z,112.10
2018-03-04T06:36:59.590Z,109.40
2018-03-04T06:38:55.473Z,98.80
2018-03-04T06:39:55.477Z,103.20
2018-03-04T06:41:51.432Z,111.70
2018-03-04T06:42:51.420Z,102.80
2018-03-04T06:44:47.385Z,105.40
2018-03-04T06:45:47.864Z,105.20
2018-03-04T06:47:44.270Z,106.20
2018-03-04T06:48:43.248Z,105.90
2018-03-04T06:50:39.168Z,103.00
2018-03-04T06:51:39.138Z,101.10
2018-03-04T06:53:35.595Z,99.40
2018-03-04T06:54:35.061Z,101.00
2018-03-04T06:56:31.007Z,99.50
2018-03-04T06:57:30.992Z,99.60
2018-03-04T06:59:26.940Z,100.80
2018-03-04T07:00:26.954Z,96.20
2018-03-04T07:02:22.877Z,101.30
2018-03-04T07:03:22.868Z,103.10
2018-03-04T07:05:18.791Z,94.20
2018-03-04T07:06:18.781Z,95.00
2018-03-04T07:08:14.739Z,97.30
2018-03-04T07:09:14.671Z,99.80
2018-03-04T07:11:10.642Z,97.70
2018-03-04T07:12:10.579Z,95.00
2018-03-04T07:14:06.532Z,98.60
2018-03-04T07:15:06.489Z,99.00
2018-03-04T07:17:03.956Z,95.70
2018-03-04T07:18:02.929Z,92.50
2018-03-04T07:19:59.841Z,95.50
2018-03-04T07:20:58.316Z,96.30
2018-03-04T07:22:54.260Z,95.00
2018-03-04T07:23:54.241Z,97.80
2018-03-04T07:25:50.712Z,87.80
2018-03-04T07:26:50.159Z,90.40
2018-03-04T07:28:46.604Z,95.80
2018-03-04T07:29:46.604Z,88.50
2018-03-04T07:31:42.021Z,92.10
2018-03-04T07:32:42.985Z,90.50
2018-03-04T07:34:36.433Z,92.10
2018-03-04T07:35:36.432Z,91.40
2018-03-04T07:37:32.347Z,85.80
2018-03-04T07:38:32.349Z,95.50
2018-03-04T07:40:28.296Z,92.50
2018-03-04T07:41:28.270Z,91.40
2018-03-04T07:43:24.211Z,89.50
2018-03-04T07:44:24.192Z,93.30
2018-03-04T07:46:20.100Z,90.50
2018-03-04T07:47:20.128Z,91.50
2018-03-04T07:49:16.064Z,87.20
2018-03-04T07:50:16.031Z,90.30
2018-03-04T07:52:11.962Z,95.00
2018-03-04T07:53:11.944Z,88.70
2018-03-04T07:55:07.878Z,90.20
2018-03-04T07:56:07.868Z,85.90
2018-03-04T07:58:04.333Z,84.80
2018-03-04T07:59:04.307Z,91.50
2018-03-04T08:00:59.689Z,86.30
2018-03-04T08:02:00.207Z,83.80
2018-03-04T08:03:55.632Z,84.40
2018-03-04T08:04:55.613Z,75.90
2018-03-04T08:06:52.541Z,81.60
2018-03-04T08:07:52.037Z,79.80
2018-03-04T08:09:48.481Z,80.60
2018-03-04T08:10:47.480Z,77.00
2018-03-04T08:12:43.416Z,76.50
2018-03-04T08:13:43.391Z,75.00
2018-03-04T08:15:39.341Z,81.30
2018-03-04T08:16:39.323Z,78.60
2018-03-04T08:18:35.283Z,74.30
2018-03-04T08:19:35.763Z,76.50
2018-03-04T08:21:31.167Z,73.90
2018-03-04T08:22:31.679Z,77.30
2018-03-04T08:24:27.586Z,74.00
2018-03-04T08:25:27.076Z,72.20
2018-03-04T08:27:23.033Z,70.20
2018-03-04T08:28:22.985Z,74.00
2018-03-04T08:30:18.946Z,74.80
2018-03-04T08:31:19.448Z,78.50
2018-03-04T08:33:16.371Z,71.10
2018-03-04T08:34:15.698Z,73.60
2018-03-04T08:36:11.627Z,70.60
2018-03-04T08:37:11.615Z,77.00
2018-03-04T08:39:09.074Z,69.20
2018-03-04T08:40:07.517Z,69.40
2018-03-04T08:42:03.453Z,75.40
2018-03-04T08:43:03.436Z,76.00
2018-03-04T08:44:59.900Z,72.60
2018-03-04T08:45:59.383Z,75.00
2018-03-04T08:47:55.300Z,73.70
2018-03-04T08:48:55.291Z,71.80
2018-03-04T08:50:51.235Z,70.10
2018-03-04T08:51:51.223Z,69.30
2018-03-04T08:53:48.178Z,72.00
2018-03-04T08:54:47.172Z,72.70
2018-03-04T08:56:43.593Z,74.00
2018-03-04T08:57:43.106Z,73.60
2018-03-04T08:59:40.450Z,75.20
2018-03-04T09:00:39.005Z,74.70
2018-03-04T09:02:34.961Z,76.50
2018-03-04T09:03:34.935Z,71.10
2018-03-04T09:05:31.389Z,76.60
2018-03-04T09:06:30.913Z,76.50
2018-03-04T09:08:26.820Z,75.40
2018-03-04T09:09:26.776Z,71.20
2018-03-04T09:11:22.735Z,71.40
2018-03-04T09:12:22.729Z,70.50
2018-03-04T09:14:19.163Z,71.00
2018-03-04T09:15:18.642Z,70.10
2018-03-04T09:17:15.126Z,72.60
2018-03-04T09:18:14.564Z,69.20
2018-03-04T09:20:11.453Z,69.20
2018-03-04T09:21:11.008Z,71.60
2018-03-04T09:23:06.449Z,67.60
2018-03-04T09:24:06.954Z,68.80
2018-03-04T09:26:02.864Z,68.60
2018-03-04T09:27:02.367Z,69.20
2018-03-04T09:28:58.260Z,67.60
2018-03-04T09:29:58.814Z,67.10
2018-03-04T09:31:54.209Z,65.00
2018-03-04T09:32:54.197Z,63.40
2018-03-04T09:34:48.647Z,68.30
2018-03-04T09:35:48.599Z,65.60
2018-03-04T09:37:44.560Z,64.10
2018-03-04T09:38:44.526Z,63.90
2018-03-04T09:40:40.496Z,66.90
2018-03-04T09:41:40.457Z,64.10
2018-03-04T09:43:36.400Z,63.10
2018-03-04T09:44:36.916Z,61.70
2018-03-04T09:46:32.371Z,61.70
2018-03-04T09:47:32.309Z,60.60
2018-03-04T09:49:28.259Z,63.30
2018-03-04T09:50:28.266Z,65.10
2018-03-04T09:52:26.202Z,61.80
2018-03-04T09:53:25.196Z,62.10
2018-03-04T09:55:20.162Z,59.90
2018-03-04T09:56:20.157Z,63.30
2018-03-04T09:58:16.096Z,63.40
2018-03-04T09:59:16.031Z,59.80
2018-03-04T10:01:11.968Z,64.60
2018-03-04T10:02:12.530Z,57.30
2018-03-04T10:04:07.883Z,59.70
2018-03-04T10:05:07.901Z,60.00
2018-03-04T10:07:02.833Z,69.60
2018-03-04T10:08:02.855Z,62.80
2018-03-04T10:09:58.749Z,63.80
2018-03-04T10:10:58.224Z,67.90
2018-03-04T10:12:52.674Z,58.90
2018-03-04T10:13:52.645Z,65.10
2018-03-04T10:15:49.535Z,59.20
2018-03-04T10:16:48.582Z,62.60
2018-03-04T10:18:44.487Z,64.60
2018-03-04T10:19:44.483Z,61.80
2018-03-04T10:21:40.444Z,61.90
2018-03-04T10:22:40.401Z,63.00
2018-03-04T10:24:36.389Z,68.00
2018-03-04T10:25:36.886Z,64.50
2018-03-04T10:27:32.298Z,57.00
2018-03-04T10:28:32.272Z,59.00
2018-03-04T10:30:29.224Z,64.60
2018-03-04T10:31:28.200Z,64.70
2018-03-04T10:33:24.137Z,59.60
2018-03-04T10:34:24.138Z,54.20
2018-03-04T10:36:20.595Z,54.20
2018-03-04T10:37:20.710Z,51.90
2018-03-04T10:39:17.054Z,53.00
2018-03-04T10:40:16.528Z,52.00
2018-03-04T10:42:12.266Z,55.10
2018-03-04T10:43:12.257Z,54.60
2018-03-04T10:45:06.702Z,49.60
2018-03-04T10:46:05.820Z,49.60
2018-03-04T10:48:04.820Z,50.70
2018-03-04T10:50:56.847Z,49.90
2018-03-04T10:51:54.257Z,46.80
2018-03-04T10:53:50.062Z,51.20
2018-03-04T10:54:49.557Z,45.80
2018-03-04T10:56:46.500Z,55.00
2018-03-04T10:57:45.489Z,51.90
2018-03-04T10:59:41.945Z,47.10
2018-03-04T11:00:41.436Z,50.20
2018-03-04T11:02:35.861Z,46.90
2018-03-04T11:03:35.853Z,47.20
2018-03-04T11:05:30.809Z,47.10
2018-03-04T11:06:30.281Z,45.60
2018-03-04T11:08:27.737Z,42.30
2018-03-04T11:09:26.738Z,48.00
2018-03-04T11:11:22.657Z,41.50
2018-03-04T11:12:22.120Z,46.40
2018-03-04T11:14:18.060Z,47.70
2018-03-04T11:15:18.057Z,51.60
2018-03-04T11:17:14.511Z,45.40
2018-03-04T11:18:13.969Z,46.70
2018-03-04T11:20:08.923Z,48.90
2018-03-04T11:21:08.404Z,49.40
2018-03-04T11:23:03.852Z,49.80
2018-03-04T11:24:04.353Z,43.80
2018-03-04T11:25:56.805Z,52.10
2018-03-04T11:26:56.792Z,45.60
2018-03-04T11:28:50.752Z,50.10
2018-03-04T11:29:50.691Z,50.20
2018-03-04T11:31:45.150Z,51.30
2018-03-04T11:32:45.632Z,47.30
2018-03-04T11:34:41.571Z,51.40
2018-03-04T11:35:42.068Z,46.70
2018-03-04T11:37:37.005Z,48.80
2018-03-04T11:38:37.006Z,48.80
2018-03-04T11:40:32.970Z,47.90
2018-03-04T11:41:33.463Z,45.90
2018-03-04T11:43:26.371Z,47.40
2018-03-04T11:44:27.873Z,50.30
2018-03-04T11:46:20.843Z,40.60
2018-03-04T11:47:20.806Z,44.30
2018-03-04T11:49:17.241Z,47.90
2018-03-04T11:50:17.247Z,47.00
2018-03-04T11:52:12.680Z,48.00
2018-03-04T11:53:12.674Z,47.70
2018-03-04T11:55:08.581Z,43.30
2018-03-04T11:56:08.589Z,42.10
2018-03-04T11:58:05.550Z,47.80
2018-03-04T11:59:04.509Z,46.40
2018-03-04T12:01:00.453Z,43.80
2018-03-04T12:02:00.444Z,45.00
2018-03-04T12:03:56.407Z,44.50
2018-03-04T12:04:56.383Z,46.60
2018-03-04T12:06:51.339Z,47.70
2018-03-04T12:07:50.837Z,47.00
2018-03-04T12:09:46.356Z,49.00
2018-03-04T12:10:45.291Z,50.20
2018-03-04T12:12:41.751Z,48.90
2018-03-04T12:13:41.741Z,46.20
2018-03-04T12:15:37.167Z,45.60
2018-03-04T12:16:37.167Z,43.50
2018-03-04T12:18:33.121Z,49.60
2018-03-04T12:19:33.098Z,48.40
2018-03-04T12:21:29.081Z,50.20
2018-03-04T12:22:29.547Z,46.50
2018-03-04T12:24:25.003Z,48.70
2018-03-04T12:25:25.528Z,49.20
2018-03-04T12:27:21.942Z,47.00
2018-03-04T12:28:21.941Z,44.70
2018-03-04T12:30:16.915Z,50.70
2018-03-04T12:31:16.887Z,53.10
2018-03-04T12:33:12.826Z,48.90
2018-03-04T12:34:12.833Z,48.10
2018-03-04T12:36:08.752Z,48.20
2018-03-04T12:38:24.218Z,48.60
2018-03-04T12:39:23.697Z,51.90
2018-03-04T12:41:20.110Z,45.20
2018-03-04T12:42:19.093Z,46.00
2018-03-04T12:44:15.057Z,48.50
2018-03-04T12:45:15.541Z,43.90
2018-03-04T12:47:11.003Z,44.20
2018-03-04T12:48:11.995Z,48.30
2018-03-04T12:50:06.968Z,51.60
2018-03-04T12:51:07.475Z,48.90
2018-03-04T12:53:03.387Z,49.70
2018-03-04T12:54:02.862Z,49.70
2018-03-04T12:55:59.807Z,45.80
2018-03-04T12:56:58.824Z,47.60
2018-03-04T12:58:54.717Z,45.80
2018-03-04T12:59:54.746Z,47.40
2018-03-04T13:01:50.682Z,45.30
2018-03-04T13:02:50.658Z,42.30
2018-03-04T13:04:49.607Z,44.80
2018-03-04T13:05:49.598Z,41.30
2018-03-04T13:07:45.160Z,43.80
2018-03-04T13:08:44.624Z,44.00
2018-03-04T13:10:40.555Z,46.70
2018-03-04T13:11:40.576Z,46.80
2018-03-04T13:13:37.029Z,46.10
2018-03-04T13:14:36.476Z,50.20
2018-03-04T13:16:32.471Z,43.00
2018-03-04T13:17:32.418Z,41.60
2018-03-04T13:19:26.893Z,40.90
2018-03-04T13:20:26.853Z,39.50
2018-03-04T13:22:20.360Z,44.60
2018-03-04T13:23:20.291Z,45.20
2018-03-04T13:25:16.221Z,44.40
2018-03-04T13:26:16.238Z,42.70
2018-03-04T13:28:12.144Z,44.50
2018-03-04T13:29:12.132Z,44.30
2018-03-04T13:31:08.091Z,40.60
2018-03-04T13:32:08.087Z,40.70
2018-03-04T13:34:04.579Z,45.70
2018-03-04T13:35:04.544Z,50.40
2018-03-04T13:37:00.504Z,43.70
2018-03-04T13:39:54.170Z,41.20
2018-03-04T13:40:54.156Z,44.60
2018-03-04T13:42:52.269Z,45.50
2018-03-04T13:43:52.165Z,39.50
2018-03-04T13:45:47.137Z,41.90
2018-03-04T13:46:46.645Z,41.60
2018-03-04T13:48:44.109Z,39.80
2018-03-04T13:49:44.094Z,44.80
2018-03-04T13:51:40.514Z,42.70
2018-03-04T13:52:39.514Z,40.60
2018-03-04T13:54:37.474Z,46.30
2018-03-04T13:55:35.975Z,43.10
2018-03-04T13:57:32.420Z,39.10
2018-03-04T13:58:31.429Z,44.30
2018-03-04T14:00:29.399Z,44.90
2018-03-04T14:01:29.386Z,45.50
2018-03-04T14:03:25.402Z,43.90
2018-03-04T14:04:25.319Z,41.80
2018-03-04T14:06:21.238Z,42.60
2018-03-04T14:07:22.773Z,41.10
2018-03-04T14:09:19.157Z,43.20
2018-03-04T14:10:19.176Z,40.40
2018-03-04T14:12:17.228Z,41.70
2018-03-04T14:13:18.115Z,40.10
2018-03-04T14:15:15.689Z,38.10
2018-03-04T14:16:15.310Z,39.30
2018-03-04T14:18:13.274Z,37.40
2018-03-04T14:19:14.767Z,40.90
2018-03-04T14:21:11.673Z,37.40
2018-03-04T14:22:11.143Z,38.90
2018-03-04T14:24:09.273Z,41.10
2018-03-04T14:25:10.099Z,36.70
2018-03-04T14:27:07.298Z,38.70
2018-03-04T14:28:08.182Z,36.00
2018-03-04T14:30:03.754Z,42.50
2018-03-04T14:31:04.235Z,36.60
2018-03-04T14:33:02.748Z,44.10
2018-03-04T14:34:01.713Z,36.80
2018-03-04T14:36:00.138Z,40.70
2018-03-04T14:36:59.645Z,37.50
2018-03-04T14:38:57.595Z,41.10
2018-03-04T14:39:57.557Z,38.10
2018-03-04T14:41:57.989Z,38.40
2018-03-04T14:42:58.473Z,39.80
2018-03-04T14:44:55.954Z,36.30
2018-03-04T14:45:55.419Z,36.60
2018-03-04T14:47:54.860Z,36.80
2018-03-04T14:48:55.399Z,34.40
2018-03-04T14:50:51.551Z,35.90
2018-03-04T14:51:51.922Z,34.90
2018-03-04T14:53:49.882Z,35.60
2018-03-04T14:54:48.379Z,37.70
2018-03-04T14:56:43.371Z,38.30
2018-03-04T14:57:43.359Z,38.00
2018-03-04T14:59:39.340Z,36.90
2018-03-04T15:00:39.340Z,35.30
2018-03-04T15:02:38.286Z,32.90
2018-03-04T15:03:37.302Z,31.50
2018-03-04T15:05:35.771Z,35.50
2018-03-04T15:06:35.423Z,35.20
2018-03-04T15:08:33.740Z,33.10
2018-03-04T15:09:33.205Z,35.90
2018-03-04T15:11:31.141Z,34.40
2018-03-04T15:12:31.171Z,33.70
2018-03-04T15:14:30.104Z,35.00
2018-03-04T15:15:29.668Z,32.30
2018-03-04T15:17:27.588Z,32.20
2018-03-04T15:18:27.588Z,34.10
2018-03-04T15:20:27.002Z,33.20
2018-03-04T15:21:25.005Z,31.60
2018-03-04T15:23:23.946Z,29.30
2018-03-04T15:24:23.442Z,29.30
2018-03-04T15:26:21.461Z,32.90
2018-03-04T15:27:20.993Z,31.50
2018-03-04T15:29:19.934Z,30.60
2018-03-04T15:30:19.025Z,31.10
2018-03-04T15:32:15.917Z,31.70
2018-03-04T15:33:15.487Z,38.50
2018-03-04T15:35:11.989Z,29.30
2018-03-04T15:36:10.925Z,27.50
2018-03-04T15:38:09.905Z,26.80
2018-03-04T15:39:09.386Z,32.40
2018-03-04T15:41:08.289Z,31.30
2018-03-04T15:42:07.789Z,29.70
2018-03-04T15:44:04.899Z,28.30
2018-03-04T15:45:04.838Z,29.40
2018-03-04T15:47:02.811Z,31.30
2018-03-04T15:48:02.814Z,36.10
2018-03-04T15:50:00.787Z,31.70
2018-03-04T15:51:00.769Z,30.60
2018-03-04T15:52:59.736Z,32.80
2018-03-04T15:53:58.655Z,33.00
2018-03-04T15:55:57.633Z,34.30
2018-03-04T15:56:57.627Z,32.30
2018-03-04T15:58:54.637Z,31.30
2018-03-04T15:59:54.661Z,28.80
2018-03-04T16:01:52.609Z,35.20
2018-03-04T16:02:52.594Z,33.80
2018-03-04T16:04:52.550Z,33.10
2018-03-04T16:05:51.152Z,35.00
2018-03-04T16:07:49.678Z,37.60
2018-03-04T16:08:48.122Z,34.80
2018-03-04T16:10:46.066Z,33.40
2018-03-04T16:11:45.042Z,31.70
2018-03-04T16:13:46.028Z,36.30
2018-03-04T16:14:45.541Z,37.80
2018-03-04T16:16:51.914Z,35.50
2018-03-04T16:17:46.049Z,33.90
2018-03-04T16:19:45.443Z,37.50
2018-03-04T16:20:44.044Z,36.60
2018-03-04T16:22:42.519Z,35.40
2018-03-04T16:23:43.998Z,36.40
2018-03-04T16:25:40.047Z,36.20
2018-03-04T16:26:40.045Z,39.50
2018-03-04T16:28:38.126Z,39.60
2018-03-04T16:29:38.089Z,40.40
2018-03-04T16:31:37.579Z,37.80
2018-03-04T16:32:36.162Z,38.20
2018-03-04T16:34:36.576Z,38.10
2018-03-04T16:35:36.629Z,37.70
2018-03-04T16:37:35.053Z,44.20
2018-03-04T16:38:35.036Z,42.70
2018-03-04T16:40:32.673Z,43.40
2018-03-04T16:41:32.607Z,41.10
2018-03-04T16:43:33.113Z,39.60
2018-03-04T16:44:33.064Z,39.50
2018-03-04T16:46:33.535Z,42.20
2018-03-04T16:47:33.999Z,41.10
2018-03-04T16:49:34.060Z,41.00
2018-03-04T16:50:34.441Z,38.30
2018-03-04T16:52:34.487Z,41.20
2018-03-04T16:53:34.394Z,38.40
2018-03-04T16:55:34.811Z,39.60
2018-03-04T16:56:35.304Z,40.50
2018-03-04T16:58:35.202Z,40.00
2018-03-04T16:59:35.186Z,42.20
2018-03-04T17:01:35.145Z,42.40
2018-03-04T17:02:33.713Z,43.40
2018-03-04T17:04:29.072Z,41.50
2018-03-04T17:05:29.192Z,43.20
2018-03-04T17:07:27.105Z,40.10
2018-03-04T17:08:27.122Z,45.50
2018-03-04T17:10:25.586Z,41.10
2018-03-04T17:11:25.593Z,41.90
2018-03-04T17:13:20.996Z,41.20
2018-03-04T17:14:21.001Z,40.60
2018-03-04T17:16:17.516Z,42.70
2018-03-04T17:17:17.465Z,40.80
2018-03-04T17:19:12.887Z,39.00
2018-03-04T17:20:12.866Z,44.00
2018-03-04T17:22:09.320Z,40.40
2018-03-04T17:23:08.859Z,41.70
2018-03-04T17:25:04.802Z,45.40
2018-03-04T17:26:04.748Z,45.60
2018-03-04T17:28:05.204Z,40.50
2018-03-04T17:29:05.207Z,42.90
2018-03-04T17:31:03.225Z,41.70
2018-03-04T17:32:03.682Z,41.30
2018-03-04T17:34:02.108Z,45.80
2018-03-04T17:35:01.265Z,45.70
2018-03-04T17:37:02.274Z,44.60
2018-03-04T17:38:01.698Z,43.90
2018-03-04T17:39:58.635Z,45.90
2018-03-04T17:40:59.140Z,44.90
2018-03-04T17:42:58.619Z,46.90
2018-03-04T17:43:56.561Z,44.90
2018-03-04T17:45:56.021Z,47.30
2018-03-04T17:46:55.525Z,43.20
2018-03-04T17:48:54.564Z,45.10
2018-03-04T17:49:53.568Z,45.80
2018-03-04T17:51:51.195Z,43.90
2018-03-04T17:52:50.585Z,42.50
2018-03-04T17:54:50.046Z,45.10
2018-03-04T17:55:49.585Z,45.60
2018-03-04T17:57:48.510Z,43.40
2018-03-04T17:58:47.585Z,48.30
2018-03-04T18:00:44.624Z,51.20
2018-03-04T18:01:44.692Z,48.70
2018-03-04T18:03:43.570Z,44.60
2018-03-04T18:04:42.532Z,45.40
2018-03-04T18:06:41.494Z,43.80
2018-03-04T18:07:40.478Z,45.90
2018-03-04T18:09:38.403Z,47.20
2018-03-04T18:10:38.441Z,46.50
2018-03-04T18:12:34.392Z,46.80
2018-03-04T18:13:34.367Z,51.00
2018-03-04T18:15:32.344Z,45.60
2018-03-04T18:16:32.814Z,43.80
2018-03-04T18:18:30.735Z,48.00
2018-03-04T18:19:30.177Z,47.50
2018-03-04T18:21:26.630Z,46.80
2018-03-04T18:22:27.128Z,50.20
2018-03-04T18:24:26.615Z,47.40
2018-03-04T18:25:26.570Z,46.00
2018-03-04T18:27:21.517Z,48.50
2018-03-04T18:28:20.983Z,51.90
2018-03-04T18:30:16.941Z,48.90
2018-03-04T18:31:17.446Z,47.00
2018-03-04T18:33:12.939Z,49.40
2018-03-04T18:34:12.856Z,48.70
2018-03-04T18:36:07.812Z,47.80
2018-03-04T18:37:07.283Z,46.60
2018-03-04T18:39:02.238Z,51.40
2018-03-04T18:40:01.664Z,48.30
2018-03-04T18:41:57.600Z,49.70
2018-03-04T18:42:58.131Z,48.40
2018-03-04T18:44:53.537Z,48.60
2018-03-04T18:45:54.043Z,52.00
2018-03-04T18:47:48.476Z,47.30
2018-03-04T18:48:48.480Z,49.70
2018-03-04T18:50:44.442Z,52.50
2018-03-04T18:51:43.892Z,50.50
2018-03-04T18:53:40.835Z,54.60
2018-03-04T18:54:39.818Z,57.40
2018-03-04T18:56:36.773Z,53.60